Time;durP1;ratioP1;P1;durP2;ratioP2;P2;SDS_P1;SDS_P2;PMS_P1;PMS_P2;Temp;Humidity;BMP_temperature;BMP_pressure;BME280_temperature;BME280_humidity;BME280_pressure;Samples;Min_cycle;Max_cycle;Signal;HPM_P1;HPM_P2
2023/03/21 00:01:54;;;;;;;96.60;37.27;;;;;;;-145.18;100.00;60484.78;5031611;28;20033;-59
2023/03/21 00:04:21;;;;;;;103.37;38.57;;;;;;;-145.18;100.00;60484.78;5028963;28;20030;-58
2023/03/21 00:06:46;;;;;;;103.30;38.20;;;;;;;-145.18;100.00;60484.78;5028449;28;20022;-59
2023/03/21 00:09:12;;;;;;;92.97;35.10;;;;;;;-145.18;100.00;60484.78;5031030;28;20044;-59
2023/03/21 00:11:37;;;;;;;99.17;37.20;;;;;;;-145.18;100.00;60484.78;5026405;28;20115;-58
2023/03/21 00:14:03;;;;;;;93.60;36.10;;;;;;;-145.18;100.00;60484.78;5030337;28;20040;-59
2023/03/21 00:16:31;;;;;;;108.70;38.03;;;;;;;-145.18;100.00;60484.78;5028427;28;20378;-59
2023/03/21 00:18:57;;;;;;;107.87;39.57;;;;;;;-145.18;100.00;60484.78;5021721;28;20042;-58
2023/03/21 00:21:27;;;;;;;102.13;38.83;;;;;;;-145.18;100.00;60484.78;5023395;28;20044;-59
2023/03/21 00:23:53;;;;;;;104.00;38.73;;;;;;;-145.18;100.00;60484.78;5024258;28;20029;-59
2023/03/21 00:26:21;;;;;;;106.23;38.07;;;;;;;-145.18;100.00;60484.78;5025232;28;20029;-59
2023/03/21 00:28:47;;;;;;;109.47;40.10;;;;;;;-145.18;100.00;60484.78;5032692;28;20030;-59
2023/03/21 00:31:13;;;;;;;110.60;40.10;;;;;;;-145.18;100.00;60484.78;5025383;28;20033;-58
2023/03/21 00:33:38;;;;;;;99.80;35.23;;;;;;;-145.18;100.00;60484.78;5025813;28;20513;-59
2023/03/21 00:36:05;;;;;;;107.17;38.30;;;;;;;-145.18;100.00;60484.78;5030966;28;20123;-59
2023/03/21 00:38:30;;;;;;;97.83;39.87;;;;;;;-145.18;100.00;60484.78;5027824;28;20040;-59
2023/03/21 00:40:56;;;;;;;85.30;32.43;;;;;;;-145.18;100.00;60484.78;5022479;28;20034;-59
2023/03/21 00:43:22;;;;;;;102.37;36.60;;;;;;;-145.18;100.00;60484.78;5019808;28;20038;-59
2023/03/21 00:45:49;;;;;;;101.33;37.30;;;;;;;-145.18;100.00;60484.78;5017109;28;20022;-59
2023/03/21 00:48:14;;;;;;;104.40;36.97;;;;;;;-145.18;100.00;60484.78;5027240;28;20052;-59
2023/03/21 00:50:40;;;;;;;95.20;34.53;;;;;;;-145.18;100.00;60484.78;5028875;28;20029;-60
2023/03/21 00:53:06;;;;;;;106.47;36.47;;;;;;;-145.18;100.00;60484.78;5022108;28;20486;-59
2023/03/21 00:55:32;;;;;;;91.23;36.03;;;;;;;-145.18;100.00;60484.78;5024692;28;20028;-59
2023/03/21 00:57:58;;;;;;;89.60;35.47;;;;;;;-145.18;100.00;60484.78;5021987;28;20528;-59
2023/03/21 01:00:24;;;;;;;99.73;36.33;;;;;;;-145.18;100.00;60484.78;5021480;28;20135;-59
2023/03/21 01:02:55;;;;;;;97.30;35.80;;;;;;;-145.18;100.00;60484.78;5021325;28;20032;-59
2023/03/21 01:08:16;;;;;;;97.33;35.10;;;;;;;-145.18;100.00;60484.78;5023929;28;20052;-59
2023/03/21 01:10:45;;;;;;;96.13;34.08;;;;;;;-145.18;100.00;60484.78;5033088;28;20025;-59
2023/03/21 01:13:13;;;;;;;103.23;36.60;;;;;;;-145.18;100.00;60484.78;5026639;28;20083;-59
2023/03/21 01:15:45;;;;;;;103.60;35.03;;;;;;;-145.18;100.00;60484.78;5024703;28;20029;-59
2023/03/21 01:18:11;;;;;;;;;;;;;;;-145.18;100.00;60484.78;5024139;28;20045;-59
2023/03/21 01:20:36;;;;;;;89.07;32.90;;;;;;;-145.18;100.00;60484.78;5032360;28;19954;-59
2023/03/21 01:23:02;;;;;;;111.60;37.07;;;;;;;-145.18;100.00;60484.78;5024255;28;20042;-59
2023/03/21 01:25:27;;;;;;;92.40;34.00;;;;;;;-145.18;100.00;60484.78;5025910;28;20430;-59
2023/03/21 01:27:53;;;;;;;88.03;32.33;;;;;;;-145.18;100.00;60484.78;5028810;28;20374;-59
2023/03/21 01:30:19;;;;;;;95.33;33.97;;;;;;;-145.18;100.00;60484.78;5020481;28;20068;-59
2023/03/21 01:32:45;;;;;;;104.40;35.67;;;;;;;-145.18;100.00;60484.78;5031227;28;20037;-59
2023/03/21 01:35:10;;;;;;;98.27;36.27;;;;;;;-145.18;100.00;60484.78;5023062;28;20025;-59
2023/03/21 01:37:36;;;;;;;93.67;34.57;;;;;;;-145.18;100.00;60484.78;5028836;28;20507;-60
2023/03/21 01:40:03;;;;;;;94.90;35.10;;;;;;;-145.18;100.00;60484.78;5028305;28;20060;-59
2023/03/21 01:42:29;;;;;;;100.70;35.77;;;;;;;-145.18;100.00;60484.78;5028239;28;20080;-59
2023/03/21 01:45:06;;;;;;;100.97;34.13;;;;;;;-145.18;100.00;60484.78;5028433;28;20033;-59
2023/03/21 01:47:31;;;;;;;105.13;35.80;;;;;;;-145.18;100.00;60484.78;5030621;28;20116;-59
2023/03/21 01:50:01;;;;;;;99.47;35.23;;;;;;;-145.18;100.00;60484.78;5023963;28;20075;-59
2023/03/21 01:52:37;;;;;;;86.27;32.63;;;;;;;-145.18;100.00;60484.78;5019166;28;20048;-60
2023/03/21 01:55:07;;;;;;;96.50;34.03;;;;;;;-145.18;100.00;60484.78;5028227;28;20030;-59
2023/03/21 01:57:40;;;;;;;96.23;35.27;;;;;;;-145.18;100.00;60484.78;5023957;28;20029;-59
2023/03/21 02:03:28;;;;;;;83.80;33.63;;;;;;;-145.18;100.00;60484.78;5021994;28;20033;-66
2023/03/21 02:06:03;;;;;;;84.57;32.43;;;;;;;-145.18;100.00;60484.78;5030830;28;20112;-66
2023/03/21 02:08:32;;;;;;;81.47;33.17;;;;;;;-145.18;100.00;60484.78;5020973;28;20025;-66
2023/03/21 02:10:58;;;;;;;84.83;32.73;;;;;;;-145.18;100.00;60484.78;5021632;28;20037;-66
2023/03/21 02:13:24;;;;;;;81.43;32.90;;;;;;;-145.18;100.00;60484.78;5022091;28;20029;-66
2023/03/21 02:16:14;;;;;;;87.77;32.60;;;;;;;-145.18;100.00;60484.78;5023625;28;20029;-66
2023/03/21 02:19:18;;;;;;;78.70;30.77;;;;;;;-145.18;100.00;60484.78;5019342;28;20022;-65
2023/03/21 02:22:45;;;;;;;74.37;31.00;;;;;;;-145.18;100.00;60484.78;4994313;28;20042;-65
2023/03/21 02:25:45;;;;;;;88.27;32.07;;;;;;;-145.18;100.00;60484.78;4987593;28;20080;-66
2023/03/21 02:28:32;;;;;;;75.47;30.70;;;;;;;-145.18;100.00;60484.78;4979414;28;20056;-65
2023/03/21 02:31:39;;;;;;;81.07;31.90;;;;;;;-145.18;100.00;60484.78;5011736;28;20080;-65
2023/03/21 02:34:34;;;;;;;75.63;29.90;;;;;;;-145.18;100.00;60484.78;5010059;28;20568;-65
2023/03/21 02:37:22;;;;;;;70.53;28.63;;;;;;;-145.18;100.00;60484.78;5010204;28;20040;-65
2023/03/21 02:40:13;;;;;;;73.97;31.23;;;;;;;-145.18;100.00;60484.78;5009844;28;20558;-65
2023/03/21 02:42:56;;;;;;;70.87;29.73;;;;;;;-145.18;100.00;60484.78;5009921;28;20030;-65
2023/03/21 02:45:29;;;;;;;81.57;31.10;;;;;;;-145.18;100.00;60484.78;5009793;28;20426;-65
2023/03/21 02:47:59;;;;;;;80.90;30.90;;;;;;;-145.18;100.00;60484.78;5009476;28;20521;-65
2023/03/21 02:50:37;;;;;;;85.67;33.83;;;;;;;-145.18;100.00;60484.78;5010078;28;20084;-65
2023/03/21 02:53:05;;;;;;;68.27;28.47;;;;;;;-145.18;100.00;60484.78;5009529;28;20131;-65
2023/03/21 02:55:33;;;;;;;75.57;30.57;;;;;;;-145.18;100.00;60484.78;5009279;28;20504;-65
2023/03/21 02:58:00;;;;;;;72.10;29.43;;;;;;;-145.18;100.00;60484.78;5013828;28;20034;-66
2023/03/21 03:00:29;;;;;;;71.63;30.77;;;;;;;-145.18;100.00;60484.78;5030646;28;20033;-65
2023/03/21 03:02:54;;;;;;;86.70;32.53;;;;;;;-145.18;100.00;60484.78;5017691;28;20367;-65
2023/03/21 03:05:29;;;;;;;79.73;30.67;;;;;;;-145.18;100.00;60484.78;5029331;28;20120;-65
2023/03/21 03:08:26;;;;;;;81.47;30.70;;;;;;;-145.18;100.00;60484.78;5031251;28;20072;-65
2023/03/21 03:11:27;;;;;;;78.27;31.30;;;;;;;-145.18;100.00;60484.78;5031116;28;20021;-65
2023/03/21 03:14:18;;;;;;;72.17;29.67;;;;;;;-145.18;100.00;60484.78;5016838;28;20116;-65
2023/03/21 03:17:28;;;;;;;80.00;30.63;;;;;;;-145.18;100.00;60484.78;5030549;28;20040;-65
2023/03/21 03:20:44;;;;;;;78.77;29.57;;;;;;;-145.18;100.00;60484.78;4951712;28;20397;-65
2023/03/21 03:23:47;;;;;;;74.10;29.83;;;;;;;-145.18;100.00;60484.78;4894151;29;20036;-65
2023/03/21 03:26:40;;;;;;;74.30;29.70;;;;;;;-145.18;100.00;60484.78;4876938;29;20183;-65
2023/03/21 03:29:10;;;;;;;72.00;30.43;;;;;;;-145.18;100.00;60484.78;4819638;29;20447;-66
2023/03/21 03:31:42;;;;;;;77.83;30.47;;;;;;;-145.18;100.00;60484.78;4820155;29;20447;-65
2023/03/21 03:34:20;;;;;;;75.30;29.83;;;;;;;-145.18;100.00;60484.78;4820345;29;20466;-59
2023/03/21 03:36:50;;;;;;;77.43;30.87;;;;;;;-145.18;100.00;60484.78;4821676;29;20042;-59
2023/03/21 03:39:17;;;;;;;77.43;30.93;;;;;;;-145.18;100.00;60484.78;4823803;29;20376;-59
2023/03/21 03:41:47;;;;;;;76.27;30.23;;;;;;;-145.18;100.00;60484.78;4824142;29;20049;-59
2023/03/21 03:44:12;;;;;;;78.40;31.30;;;;;;;-145.18;100.00;60484.78;4823582;29;20038;-59
2023/03/21 03:46:49;;;;;;;72.43;30.90;;;;;;;-145.18;100.00;60484.78;4824730;29;20445;-59
2023/03/21 03:49:21;;;;;;;79.27;30.83;;;;;;;-145.18;100.00;60484.78;4823549;29;20043;-59
2023/03/21 03:52:10;;;;;;;71.60;29.10;;;;;;;-145.18;100.00;60484.78;4823483;29;20042;-59
2023/03/21 03:54:40;;;;;;;72.23;28.57;;;;;;;-145.18;100.00;60484.78;4822947;29;20496;-60
2023/03/21 03:57:07;;;;;;;75.90;30.23;;;;;;;-145.18;100.00;60484.78;4909009;29;20373;-59
2023/03/21 03:59:36;;;;;;;72.87;29.50;;;;;;;-145.18;100.00;60484.78;4944008;29;20572;-59
2023/03/21 04:02:02;;;;;;;67.80;29.77;;;;;;;-145.18;100.00;60484.78;4937721;29;20036;-58
2023/03/21 04:04:28;;;;;;;76.00;30.80;;;;;;;-145.18;100.00;60484.78;4944041;29;20047;-59
2023/03/21 04:06:54;;;;;;;62.23;29.90;;;;;;;-145.18;100.00;60484.78;5024999;28;20490;-59
2023/03/21 04:09:20;;;;;;;66.53;28.20;;;;;;;-145.18;100.00;60484.78;5024347;28;20104;-59
2023/03/21 04:11:46;;;;;;;70.13;29.50;;;;;;;-145.18;100.00;60484.78;5032930;28;20090;-59
2023/03/21 04:14:12;;;;;;;68.27;29.57;;;;;;;-145.18;100.00;60484.78;5020137;28;20026;-59
2023/03/21 04:16:37;;;;;;;67.60;28.83;;;;;;;-145.18;100.00;60484.78;5017804;28;20025;-59
2023/03/21 04:19:03;;;;;;;69.43;29.47;;;;;;;-145.18;100.00;60484.78;5023653;28;20033;-59
2023/03/21 04:21:29;;;;;;;67.93;27.00;;;;;;;-145.18;100.00;60484.78;5026739;28;20022;-59
2023/03/21 04:23:55;;;;;;;59.60;26.17;;;;;;;-145.18;100.00;60484.78;5023282;28;20116;-59
2023/03/21 04:26:21;;;;;;;70.17;28.57;;;;;;;-145.18;100.00;60484.78;5029048;28;20029;-59
2023/03/21 04:28:48;;;;;;;65.53;26.80;;;;;;;-145.18;100.00;60484.78;5031681;28;20042;-59
2023/03/21 04:31:13;;;;;;;65.10;27.80;;;;;;;-145.18;100.00;60484.78;5033663;28;20117;-59
2023/03/21 04:33:39;;;;;;;66.10;27.20;;;;;;;-145.18;100.00;60484.78;5033659;28;20124;-59
2023/03/21 04:36:08;;;;;;;68.77;26.17;;;;;;;-145.18;100.00;60484.78;5022774;28;20036;-59
2023/03/21 04:38:34;;;;;;;68.03;27.90;;;;;;;-145.18;100.00;60484.78;5033611;28;20021;-60
2023/03/21 04:41:00;;;;;;;62.17;26.53;;;;;;;-145.18;100.00;60484.78;5033710;28;20030;-59
2023/03/21 04:43:27;;;;;;;61.00;26.13;;;;;;;-145.18;100.00;60484.78;5032851;28;20025;-59
2023/03/21 04:45:53;;;;;;;56.57;25.33;;;;;;;-145.18;100.00;60484.78;5027199;28;20025;-59
2023/03/21 04:48:19;;;;;;;62.10;26.93;;;;;;;-145.18;100.00;60484.78;5027174;28;20548;-59
2023/03/21 04:50:45;;;;;;;55.47;24.93;;;;;;;-145.18;100.00;60484.78;5021535;28;20048;-59
2023/03/21 04:53:11;;;;;;;51.67;23.10;;;;;;;-145.18;100.00;60484.78;5018017;28;20034;-59
2023/03/21 04:55:37;;;;;;;64.73;26.57;;;;;;;-145.18;100.00;60484.78;5016473;28;20047;-59
2023/03/21 04:58:03;;;;;;;63.90;26.50;;;;;;;-145.18;100.00;60484.78;5014254;28;20022;-59
2023/03/21 05:00:30;;;;;;;58.43;26.10;;;;;;;-145.18;100.00;60484.78;5022444;28;20068;-59
2023/03/21 05:02:57;;;;;;;62.67;25.53;;;;;;;-145.18;100.00;60484.78;5024903;28;20035;-59
2023/03/21 05:05:23;;;;;;;57.77;25.60;;;;;;;-145.18;100.00;60484.78;5033446;28;20104;-59
2023/03/21 05:07:49;;;;;;;58.70;25.27;;;;;;;-145.18;100.00;60484.78;5032849;28;20046;-60
2023/03/21 05:10:15;;;;;;;57.40;24.13;;;;;;;-145.18;100.00;60484.78;5023906;28;20379;-59
2023/03/21 05:12:40;;;;;;;59.60;26.80;;;;;;;-145.18;100.00;60484.78;5017798;28;20030;-59
2023/03/21 05:15:07;;;;;;;52.97;26.13;;;;;;;-145.18;100.00;60484.78;5032478;28;20021;-59
2023/03/21 05:17:32;;;;;;;62.17;26.83;;;;;;;-145.18;100.00;60484.78;5016876;28;20023;-60
2023/03/21 05:19:57;;;;;;;57.20;26.37;;;;;;;-145.18;100.00;60484.78;5028478;28;20505;-59
2023/03/21 05:22:25;;;;;;;57.87;25.37;;;;;;;-145.18;100.00;60484.78;5021038;28;20036;-59
2023/03/21 05:24:54;;;;;;;56.97;25.93;;;;;;;-145.18;100.00;60484.78;5040434;28;20115;-59
2023/03/21 05:27:36;;;;;;;65.60;25.63;;;;;;;-145.18;100.00;60484.78;5045008;28;20512;-59
2023/03/21 05:30:07;;;;;;;59.87;25.70;;;;;;;-145.18;100.00;60484.78;5026881;28;20520;-59
2023/03/21 05:32:33;;;;;;;68.00;25.30;;;;;;;-145.18;100.00;60484.78;5039299;28;20174;-59
2023/03/21 05:34:58;;;;;;;62.77;26.80;;;;;;;-145.18;100.00;60484.78;5043106;28;20497;-59
2023/03/21 05:37:24;;;;;;;62.07;27.17;;;;;;;-145.18;100.00;60484.78;5039166;28;20119;-59
2023/03/21 05:39:50;;;;;;;65.27;27.17;;;;;;;-145.18;100.00;60484.78;5032899;28;20047;-58
2023/03/21 05:42:17;;;;;;;64.30;25.80;;;;;;;-145.18;100.00;60484.78;5041145;28;20079;-59
2023/03/21 05:44:43;;;;;;;65.53;26.83;;;;;;;-145.18;100.00;60484.78;5043799;28;20038;-59
2023/03/21 05:47:08;;;;;;;68.13;28.67;;;;;;;-145.18;100.00;60484.78;5034376;28;20231;-59
2023/03/21 05:49:34;;;;;;;76.67;29.53;;;;;;;-145.18;100.00;60484.78;5034333;28;21805;-58
2023/03/21 05:51:59;;;;;;;70.53;27.47;;;;;;;-145.18;100.00;60484.78;5033671;28;20112;-58
2023/03/21 05:54:24;;;;;;;69.20;28.10;;;;;;;-145.18;100.00;60484.78;5040252;28;20116;-58
2023/03/21 05:56:50;;;;;;;67.57;29.20;;;;;;;-145.18;100.00;60484.78;5034885;28;20033;-59
2023/03/21 05:59:15;;;;;;;76.00;29.20;;;;;;;-145.18;100.00;60484.78;5033015;28;20032;-59
2023/03/21 06:01:41;;;;;;;81.17;30.10;;;;;;;-145.18;100.00;60484.78;5036813;28;20024;-59
2023/03/21 06:04:07;;;;;;;70.60;29.40;;;;;;;-145.18;100.00;60484.78;5047349;28;20039;-59
2023/03/21 06:06:32;;;;;;;62.90;27.87;;;;;;;-145.18;100.00;60484.78;5025788;28;20105;-59
2023/03/21 06:08:58;;;;;;;75.83;27.70;;;;;;;-145.18;100.00;60484.78;5038425;28;20039;-59
2023/03/21 06:11:30;;;;;;;67.47;31.17;;;;;;;-145.18;100.00;60484.78;5040224;28;20033;-58
2023/03/21 06:13:55;;;;;;;64.82;27.92;;;;;;;-145.18;100.00;60484.78;5047939;28;20032;-59
2023/03/21 06:16:21;;;;;;;67.43;28.07;;;;;;;-145.18;100.00;60484.78;5053229;28;20033;-59
2023/03/21 06:18:46;;;;;;;65.20;28.00;;;;;;;-145.18;100.00;60484.78;5052948;28;20024;-59
2023/03/21 06:21:12;;;;;;;66.60;28.90;;;;;;;-145.18;100.00;60484.78;5053822;28;20376;-59
2023/03/21 06:23:38;;;;;;;60.17;27.53;;;;;;;-145.18;100.00;60484.78;5050118;28;20040;-59
2023/03/21 06:26:04;;;;;;;65.47;26.30;;;;;;;-145.18;100.00;60484.78;5047529;28;20037;-59
2023/03/21 06:28:30;;;;;;;63.80;25.97;;;;;;;-145.18;100.00;60484.78;5052692;28;20485;-59
2023/03/21 06:30:56;;;;;;;59.40;27.10;;;;;;;-145.18;100.00;60484.78;5052184;28;20036;-61
2023/03/21 06:33:21;;;;;;;55.53;26.57;;;;;;;-145.18;100.00;60484.78;5050502;28;20028;-59
2023/03/21 06:35:54;;;;;;;63.47;26.67;;;;;;;-145.18;100.00;60484.78;5052545;28;20033;-58
2023/03/21 06:38:20;;;;;;;57.83;24.73;;;;;;;-145.18;100.00;60484.78;5034993;28;20024;-59
2023/03/21 06:40:46;;;;;;;55.07;26.23;;;;;;;-145.18;100.00;60484.78;5046235;28;20451;-59
2023/03/21 06:43:12;;;;;;;60.97;26.33;;;;;;;-145.18;100.00;60484.78;5044079;28;20025;-58
2023/03/21 06:45:38;;;;;;;61.17;27.87;;;;;;;-145.18;100.00;60484.78;5034509;28;20392;-59
2023/03/21 06:48:03;;;;;;;56.37;25.60;;;;;;;-145.18;100.00;60484.78;5033010;28;20075;-59
2023/03/21 06:50:29;;;;;;;59.23;27.00;;;;;;;-145.18;100.00;60484.78;5048978;28;20120;-58
2023/03/21 06:52:56;;;;;;;51.37;24.63;;;;;;;-145.18;100.00;60484.78;5051603;28;20508;-59
2023/03/21 06:55:25;;;;;;;61.43;26.00;;;;;;;-145.18;100.00;60484.78;5032916;28;20039;-59
2023/03/21 06:57:54;;;;;;;60.43;27.03;;;;;;;-145.18;100.00;60484.78;5024383;28;20497;-59
2023/03/21 07:00:21;;;;;;;61.87;26.93;;;;;;;-145.18;100.00;60484.78;5037928;28;20025;-59
2023/03/21 07:02:47;;;;;;;58.27;26.80;;;;;;;-145.18;100.00;60484.78;5041675;28;20025;-59
2023/03/21 07:05:12;;;;;;;55.40;25.60;;;;;;;-145.18;100.00;60484.78;5051344;28;20484;-59
2023/03/21 07:07:39;;;;;;;54.07;24.63;;;;;;;-145.18;100.00;60484.78;5052968;28;20040;-59
2023/03/21 07:10:06;;;;;;;50.87;25.13;;;;;;;-145.18;100.00;60484.78;5050807;28;20480;-59
2023/03/21 07:12:35;;;;;;;53.93;23.03;;;;;;;-145.18;100.00;60484.78;5047086;28;20109;-59
2023/03/21 07:15:05;;;;;;;46.13;23.77;;;;;;;-145.18;100.00;60484.78;5051961;28;20355;-58
2023/03/21 07:17:31;;;;;;;52.43;24.97;;;;;;;-145.18;100.00;60484.78;5047862;28;20064;-59
2023/03/21 07:19:57;;;;;;;49.90;23.87;;;;;;;-145.18;100.00;60484.78;5049982;28;20056;-59
2023/03/21 07:22:22;;;;;;;49.60;24.10;;;;;;;-145.18;100.00;60484.78;5034472;28;20036;-59
2023/03/21 07:24:48;;;;;;;44.00;22.83;;;;;;;-145.18;100.00;60484.78;5051868;28;20040;-59
2023/03/21 07:27:14;;;;;;;47.97;21.73;;;;;;;-145.18;100.00;60484.78;5052742;28;20178;-60
2023/03/21 07:29:40;;;;;;;47.93;23.77;;;;;;;-145.18;100.00;60484.78;5041015;28;20448;-59
2023/03/21 07:32:06;;;;;;;50.10;23.30;;;;;;;-145.18;100.00;60484.78;5052031;28;20104;-60
2023/03/21 07:34:32;;;;;;;49.07;21.93;;;;;;;-145.18;100.00;60484.78;5047071;28;20438;-59
2023/03/21 07:36:59;;;;;;;44.47;22.40;;;;;;;-145.18;100.00;60484.78;5046018;28;20084;-63
2023/03/21 07:39:25;;;;;;;48.13;23.90;;;;;;;-145.18;100.00;60484.78;5039714;28;20494;-59
2023/03/21 07:41:51;;;;;;;41.60;22.90;;;;;;;-145.18;100.00;60484.78;5052912;28;20115;-59
2023/03/21 07:44:17;;;;;;;38.13;19.13;;;;;;;-145.18;100.00;60484.78;5037336;28;20112;-59
2023/03/21 07:46:42;;;;;;;36.97;19.13;;;;;;;-145.18;100.00;60484.78;5032931;28;20095;-59
2023/03/21 07:49:08;;;;;;;39.13;20.27;;;;;;;-145.18;100.00;60484.78;5035614;28;20488;-59
2023/03/21 07:51:36;;;;;;;42.73;22.40;;;;;;;-145.18;100.00;60484.78;5051868;28;20465;-59
2023/03/21 07:54:02;;;;;;;37.93;20.33;;;;;;;-145.18;100.00;60484.78;5046655;28;20552;-59
2023/03/21 07:56:28;;;;;;;40.00;19.17;;;;;;;-145.18;100.00;60484.78;5051256;28;20021;-59
2023/03/21 07:58:53;;;;;;;33.63;18.53;;;;;;;-145.18;100.00;60484.78;5038249;28;20099;-59
2023/03/21 08:01:20;;;;;;;36.73;18.33;;;;;;;-145.18;100.00;60484.78;5043427;28;20025;-59
2023/03/21 08:03:46;;;;;;;32.53;17.27;;;;;;;-145.18;100.00;60484.78;5042171;28;20421;-59
2023/03/21 08:06:12;;;;;;;30.30;15.27;;;;;;;-145.18;100.00;60484.78;5034302;28;20080;-59
2023/03/21 08:08:38;;;;;;;36.60;18.03;;;;;;;-145.18;100.00;60484.78;5051844;28;20108;-59
2023/03/21 08:11:04;;;;;;;33.90;13.60;;;;;;;-145.18;100.00;60484.78;5034898;28;20497;-59
2023/03/21 08:13:30;;;;;;;37.17;17.87;;;;;;;-145.18;100.00;60484.78;5013074;28;20026;-59
2023/03/21 08:15:56;;;;;;;33.87;14.90;;;;;;;-145.18;100.00;60484.78;5045325;28;20029;-58
2023/03/21 08:18:21;;;;;;;35.97;17.67;;;;;;;-145.18;100.00;60484.78;5049186;28;20021;-58
2023/03/21 08:20:57;;;;;;;34.23;18.37;;;;;;;-145.18;100.00;60484.78;5051568;28;20075;-59
2023/03/21 08:23:23;;;;;;;35.77;16.80;;;;;;;-145.18;100.00;60484.78;5052541;28;20032;-59
2023/03/21 08:25:53;;;;;;;29.90;15.53;;;;;;;-145.18;100.00;60484.78;5054224;28;20049;-59
2023/03/21 08:28:19;;;;;;;31.00;15.83;;;;;;;-145.18;100.00;60484.78;5054633;28;20020;-59
2023/03/21 08:30:44;;;;;;;27.23;15.37;;;;;;;-145.18;100.00;60484.78;5049668;28;20040;-59
2023/03/21 08:33:12;;;;;;;30.70;15.10;;;;;;;-145.18;100.00;60484.78;5055836;28;20036;-59
2023/03/21 08:35:37;;;;;;;32.23;16.23;;;;;;;-145.18;100.00;60484.78;5055238;28;20029;-59
2023/03/21 08:38:03;;;;;;;25.20;14.73;;;;;;;-145.18;100.00;60484.78;5039735;28;20389;-59
2023/03/21 08:40:29;;;;;;;28.67;14.30;;;;;;;-145.18;100.00;60484.78;5035694;28;20497;-59
2023/03/21 08:42:54;;;;;;;25.77;14.30;;;;;;;-145.18;100.00;60484.78;5035298;28;20026;-59
2023/03/21 08:45:21;;;;;;;29.20;14.57;;;;;;;-145.18;100.00;60484.78;5035574;28;20033;-59
2023/03/21 08:47:47;;;;;;;29.23;14.90;;;;;;;-145.18;100.00;60484.78;5035638;28;20041;-59
2023/03/21 08:50:18;;;;;;;26.53;14.87;;;;;;;-145.18;100.00;60484.78;5034147;28;20025;-59
2023/03/21 08:52:44;;;;;;;25.48;13.25;;;;;;;-145.18;100.00;60484.78;5035655;28;20400;-59
2023/03/21 08:55:11;;;;;;;25.90;14.43;;;;;;;-145.18;100.00;60484.78;5032305;28;20028;-60
2023/03/21 08:57:36;;;;;;;24.87;12.77;;;;;;;-145.18;100.00;60484.78;5017175;28;20402;-59
2023/03/21 09:00:14;;;;;;;29.10;14.83;;;;;;;-145.18;100.00;60484.78;5029540;28;20026;-59
2023/03/21 09:02:44;;;;;;;29.87;14.90;;;;;;;-145.18;100.00;60484.78;5035407;28;20032;-59
2023/03/21 09:05:11;;;;;;;26.20;13.73;;;;;;;-145.18;100.00;60484.78;5035507;28;20056;-59
2023/03/21 09:07:39;;;;;;;28.60;15.13;;;;;;;-145.18;100.00;60484.78;5035368;28;20079;-59
2023/03/21 09:10:09;;;;;;;26.10;13.30;;;;;;;-145.18;100.00;60484.78;5035437;28;20052;-59
2023/03/21 09:12:34;;;;;;;25.93;13.53;;;;;;;-145.18;100.00;60484.78;5035252;28;20068;-59
2023/03/21 09:15:01;;;;;;;26.43;13.50;;;;;;;-145.18;100.00;60484.78;5045687;28;20049;-59
2023/03/21 09:17:28;;;;;;;24.37;13.10;;;;;;;-145.18;100.00;60484.78;5046914;28;20043;-60
2023/03/21 09:19:53;;;;;;;24.27;12.93;;;;;;;-145.18;100.00;60484.78;5054230;28;20095;-59
2023/03/21 09:22:20;;;;;;;26.10;13.27;;;;;;;-145.18;100.00;60484.78;5055019;28;20533;-59
2023/03/21 09:24:47;;;;;;;24.67;13.60;;;;;;;-145.18;100.00;60484.78;5054014;28;20488;-59
2023/03/21 09:27:16;;;;;;;20.87;11.77;;;;;;;-145.18;100.00;60484.78;5052632;28;20036;-59
2023/03/21 09:29:43;;;;;;;25.10;14.00;;;;;;;-145.18;100.00;60484.78;5052764;28;20451;-59
2023/03/21 09:32:12;;;;;;;23.63;13.20;;;;;;;-145.18;100.00;60484.78;5037644;28;20032;-59
2023/03/21 09:34:39;;;;;;;30.20;14.20;;;;;;;-145.18;100.00;60484.78;5042628;28;20397;-59
2023/03/21 09:37:11;;;;;;;23.40;13.67;;;;;;;-145.18;100.00;60484.78;5049363;28;20036;-60
2023/03/21 09:39:38;;;;;;;26.00;14.50;;;;;;;-145.18;100.00;60484.78;5032903;28;20043;-59
2023/03/21 09:42:32;;;;;;;25.83;14.40;;;;;;;-145.18;100.00;60484.78;5053771;28;20443;-60
2023/03/21 09:45:25;;;;;;;24.07;13.70;;;;;;;-145.18;100.00;60484.78;5039921;28;20084;-59
2023/03/21 09:47:55;;;;;;;25.03;14.23;;;;;;;-145.18;100.00;60484.78;5025569;28;20213;-60
2023/03/21 09:50:39;;;;;;;28.37;15.17;;;;;;;-145.18;100.00;60484.78;5045640;28;20038;-59
2023/03/21 09:53:23;;;;;;;24.73;14.47;;;;;;;-145.18;100.00;60484.78;5054468;28;20271;-60
2023/03/21 09:55:49;;;;;;;24.47;13.57;;;;;;;-145.18;100.00;60484.78;5046977;28;20079;-60
2023/03/21 09:58:51;;;;;;;25.73;14.83;;;;;;;-145.18;100.00;60484.78;5053464;28;20024;-60
2023/03/21 10:01:28;;;;;;;24.90;14.70;;;;;;;-145.18;100.00;60484.78;5041297;28;20040;-60
2023/03/21 10:03:55;;;;;;;26.37;15.60;;;;;;;-145.18;100.00;60484.78;5038686;28;20039;-60
2023/03/21 10:06:29;;;;;;;26.50;13.37;;;;;;;-145.18;100.00;60484.78;5052464;28;20485;-60
2023/03/21 10:09:01;;;;;;;27.27;14.87;;;;;;;-145.18;100.00;60484.78;5052842;28;20029;-60
2023/03/21 10:11:36;;;;;;;25.43;15.20;;;;;;;-145.18;100.00;60484.78;5052817;28;20059;-60
2023/03/21 10:14:12;;;;;;;30.77;15.83;;;;;;;-145.18;100.00;60484.78;5051471;28;20065;-60
2023/03/21 10:16:45;;;;;;;32.07;16.07;;;;;;;-145.18;100.00;60484.78;5053095;28;20388;-60
2023/03/21 10:19:13;;;;;;;29.23;15.33;;;;;;;-145.18;100.00;60484.78;5047482;28;20025;-60
2023/03/21 10:21:42;;;;;;;27.37;16.60;;;;;;;-145.18;100.00;60484.78;5036530;28;20065;-60
2023/03/21 10:24:18;;;;;;;28.50;15.43;;;;;;;-145.18;100.00;60484.78;5031384;28;20109;-60
2023/03/21 10:26:45;;;;;;;27.93;16.00;;;;;;;-145.18;100.00;60484.78;5034041;28;20470;-60
2023/03/21 10:29:16;;;;;;;23.80;14.30;;;;;;;-145.18;100.00;60484.78;5033946;28;20029;-60
2023/03/21 10:31:43;;;;;;;29.73;16.30;;;;;;;-145.18;100.00;60484.78;5044600;28;20059;-60
2023/03/21 10:34:17;;;;;;;27.97;16.27;;;;;;;-145.18;100.00;60484.78;5047615;28;20029;-60
2023/03/21 10:36:44;;;;;;;32.33;16.73;;;;;;;-145.18;100.00;60484.78;5045039;28;20029;-60
2023/03/21 10:39:33;;;;;;;27.50;16.50;;;;;;;-145.18;100.00;60484.78;5033264;28;20030;-60
2023/03/21 10:41:58;;;;;;;29.93;15.50;;;;;;;-145.18;100.00;60484.78;5033166;28;20465;-60
2023/03/21 10:44:32;;;;;;;26.70;16.80;;;;;;;-145.18;100.00;60484.78;5033180;28;20036;-60
2023/03/21 10:47:08;;;;;;;27.53;15.97;;;;;;;-145.18;100.00;60484.78;5033710;28;20029;-60
2023/03/21 10:49:36;;;;;;;27.73;17.43;;;;;;;-145.18;100.00;60484.78;5033435;28;20025;-60
2023/03/21 10:52:06;;;;;;;35.23;18.93;;;;;;;-145.18;100.00;60484.78;5033732;28;20466;-60
2023/03/21 10:54:34;;;;;;;34.67;19.30;;;;;;;-145.18;100.00;60484.78;5032815;28;20112;-60
2023/03/21 10:57:04;;;;;;;34.77;19.93;;;;;;;-145.18;100.00;60484.78;5033381;28;20035;-60
2023/03/21 10:59:54;;;;;;;32.73;19.53;;;;;;;-145.18;100.00;60484.78;5032684;28;20032;-60
2023/03/21 11:02:40;;;;;;;32.67;18.30;;;;;;;-145.18;100.00;60484.78;5030384;28;20040;-60
2023/03/21 11:05:40;;;;;;;28.07;17.00;;;;;;;-145.18;100.00;60484.78;5033002;28;20032;-60
2023/03/21 11:08:11;;;;;;;33.27;18.13;;;;;;;-145.18;100.00;60484.78;5032622;28;20112;-60
2023/03/21 11:10:51;;;;;;;27.55;16.05;;;;;;;-145.18;100.00;60484.78;5032713;28;20496;-61
2023/03/21 11:13:25;;;;;;;27.20;14.63;;;;;;;-145.18;100.00;60484.78;5041703;28;20409;-61
2023/03/21 11:15:58;;;;;;;29.60;17.37;;;;;;;-145.18;100.00;60484.78;5052357;28;20100;-61